Terminal Aerodrome Forecast
Issued by NWS Goodland, KS

Home | Current Version | Previous Version | Text Only | Print | Product List | Glossary On
Versions: 1 2 3 4 5 6 7 8 9 10 11 12 13
505
FTUS43 KGLD 011732 AAB
TAFGLD
TAF AMD
KGLD 011732Z 0118/0218 33022G32KT P6SM SKC
     FM012300 34013KT P6SM SKC
     FM020100 VRB05KT P6SM FEW250
     FM020600 24007KT P6SM FEW250
     FM021100 27010KT P6SM SKC
     FM021500 32012KT P6SM SKC=

USA.gov is the U.S. government's official web portal to all federal, state and local government web resources and services.